Time;durP1;ratioP1;P1;durP2;ratioP2;P2;SDS_P1;SDS_P2;PMS_P1;PMS_P2;Temp;Humidity;BMP_temperature;BMP_pressure;BME280_temperature;BME280_humidity;BME280_pressure;Samples;Min_cycle;Max_cycle;Signal;HPM_P1;HPM_P2
2022/04/03 00:02:33;;;;;;;6.97;2.37;;;-1.40;1.00;;;;;;8407499;28;20216;-62
2022/04/03 00:06:34;;;;;;;5.23;2.40;;;-1.50;1.00;;;;;;8424134;28;20203;-60
2022/04/03 00:10:35;;;;;;;4.53;2.30;;;-1.70;1.00;;;;;;8424609;28;20265;-60
2022/04/03 00:14:36;;;;;;;3.60;2.40;;;-1.80;1.00;;;;;;8432703;28;20239;-60
2022/04/03 00:18:37;;;;;;;8.53;3.17;;;-1.90;1.00;;;;;;8437218;28;20222;-60
2022/04/03 00:22:39;;;;;;;3.97;2.60;;;-1.90;1.00;;;;;;8437816;28;20203;-60
2022/04/03 00:26:40;;;;;;;5.73;2.63;;;-1.80;22.70;;;;;;8426803;28;20200;-61
2022/04/03 00:30:42;;;;;;;13.00;4.73;;;-1.80;99.90;;;;;;8405645;28;20207;-60
2022/04/03 00:34:43;;;;;;;2.97;2.03;;;-1.80;99.90;;;;;;8416775;28;20220;-61
2022/04/03 00:38:45;;;;;;;4.97;2.27;;;-1.80;99.90;;;;;;8433639;28;20278;-60
2022/04/03 00:42:46;;;;;;;14.33;6.40;;;-1.90;99.90;;;;;;8428544;28;20208;-61
2022/04/03 00:46:47;;;;;;;13.67;4.97;;;-2.00;99.90;;;;;;8413547;28;20234;-60
2022/04/03 00:50:48;;;;;;;5.30;2.50;;;-2.00;99.90;;;;;;8430015;28;20211;-66
2022/04/03 00:54:49;;;;;;;5.10;2.83;;;-2.20;99.90;;;;;;8426874;28;20306;-61
2022/04/03 00:58:50;;;;;;;5.97;2.50;;;-2.20;99.90;;;;;;8421976;28;20208;-60
2022/04/03 01:02:51;;;;;;;7.23;3.20;;;-2.30;99.90;;;;;;8438067;28;20494;-61
2022/04/03 01:06:51;;;;;;;8.50;3.23;;;-2.30;1.00;;;;;;8451957;28;20204;-63
2022/04/03 01:10:52;;;;;;;3.87;2.67;;;-2.30;1.00;;;;;;8423195;28;20219;-61
2022/04/03 01:14:53;;;;;;;6.80;2.80;;;-2.40;1.00;;;;;;8412216;28;20227;-60
2022/04/03 01:18:54;;;;;;;2.87;2.00;;;-2.40;1.00;;;;;;8424763;28;20219;-60
2022/04/03 01:22:55;;;;;;;5.67;2.23;;;-2.40;30.40;;;;;;8431372;28;20222;-60
2022/04/03 01:26:56;;;;;;;4.73;2.37;;;-2.40;99.90;;;;;;8423907;28;20218;-59
2022/04/03 01:30:57;;;;;;;3.43;2.27;;;-2.40;99.90;;;;;;8415092;28;20238;-61
2022/04/03 01:34:58;;;;;;;9.13;3.10;;;-2.40;99.90;;;;;;8413407;28;20220;-60
2022/04/03 01:38:59;;;;;;;3.97;2.00;;;-2.40;99.90;;;;;;8429778;28;20230;-60
2022/04/03 01:43:00;;;;;;;4.67;2.47;;;-2.40;99.90;;;;;;8437605;28;20222;-59
2022/04/03 01:47:01;;;;;;;4.43;2.57;;;-2.50;99.90;;;;;;8420510;28;20217;-60
2022/04/03 01:51:02;;;;;;;5.43;2.50;;;-2.50;99.90;;;;;;8420176;28;20211;-60
2022/04/03 01:55:03;;;;;;;4.67;2.60;;;-2.60;99.90;;;;;;8426859;28;20234;-60
2022/04/03 01:59:05;;;;;;;5.53;2.50;;;-2.70;99.90;;;;;;8418454;28;20218;-60
2022/04/03 02:03:06;;;;;;;2.80;1.53;;;-2.70;1.00;;;;;;8408460;28;20211;-60
2022/04/03 02:07:06;;;;;;;5.43;2.77;;;-2.80;1.00;;;;;;8402510;28;20206;-60
2022/04/03 02:11:07;;;;;;;6.80;3.03;;;-2.90;1.00;;;;;;8403474;28;20292;-60
2022/04/03 02:15:10;;;;;;;7.10;2.80;;;-3.00;99.90;;;;;;8436035;28;20221;-60
2022/04/03 02:19:11;;;;;;;4.87;2.53;;;-3.10;99.90;;;;;;8414138;28;20207;-60
2022/04/03 02:23:13;;;;;;;2.63;1.90;;;-3.20;99.90;;;;;;8420509;28;20208;-60
2022/04/03 02:27:13;;;;;;;3.90;2.20;;;-3.30;1.00;;;;;;8418013;28;20267;-60
2022/04/03 02:31:14;;;;;;;5.30;2.60;;;-3.40;73.00;;;;;;8454779;28;20207;-60
2022/04/03 02:35:15;;;;;;;4.37;2.23;;;-3.40;99.90;;;;;;8424460;28;20226;-60
2022/04/03 02:39:16;;;;;;;5.67;2.40;;;-3.50;99.90;;;;;;8429199;28;20201;-60
2022/04/03 02:43:17;;;;;;;3.47;2.23;;;-3.50;1.00;;;;;;8410589;28;20275;-62
2022/04/03 02:47:18;;;;;;;7.33;2.27;;;-3.60;51.50;;;;;;8428827;28;20208;-60
2022/04/03 02:51:19;;;;;;;5.47;2.57;;;-3.60;1.00;;;;;;8438867;28;20205;-61
2022/04/03 02:55:21;;;;;;;5.87;2.47;;;-3.60;1.00;;;;;;8434151;28;20227;-60
2022/04/03 02:59:22;;;;;;;5.30;2.53;;;-3.50;1.00;;;;;;8433029;28;20211;-60
2022/04/03 03:03:23;;;;;;;6.17;2.33;;;-3.50;1.00;;;;;;8401990;28;20264;-61
2022/04/03 03:07:24;;;;;;;3.97;2.53;;;-3.60;7.50;;;;;;8444405;28;20221;-60
2022/04/03 03:11:24;;;;;;;5.57;2.40;;;-3.60;99.90;;;;;;8407363;28;20251;-60
2022/04/03 03:15:25;;;;;;;6.90;2.73;;;-3.60;99.90;;;;;;8430840;28;20218;-60
2022/04/03 03:19:26;;;;;;;3.70;2.30;;;-3.70;1.00;;;;;;8412751;28;20203;-61
2022/04/03 03:23:29;;;;;;;3.03;1.80;;;-3.60;71.40;;;;;;8435654;28;20209;-61
2022/04/03 03:27:30;;;;;;;4.57;2.30;;;-3.60;99.90;;;;;;8434395;28;20208;-59
2022/04/03 03:31:31;;;;;;;4.17;2.80;;;-3.70;1.00;;;;;;8427539;28;20203;-61
2022/04/03 03:35:33;;;;;;;9.03;2.60;;;-3.70;99.90;;;;;;8430350;28;20228;-60
2022/04/03 03:39:34;;;;;;;5.70;2.50;;;-3.70;99.90;;;;;;8428637;28;20200;-58
2022/04/03 03:43:36;;;;;;;4.60;2.33;;;-3.70;96.30;;;;;;8408968;28;20208;-59
2022/04/03 03:47:36;;;;;;;8.23;3.27;;;-3.80;99.90;;;;;;8448348;28;20210;-59
2022/04/03 03:51:38;;;;;;;4.77;2.60;;;-3.90;1.00;;;;;;8429346;28;20211;-59
2022/04/03 03:55:38;;;;;;;8.40;3.17;;;-3.80;99.90;;;;;;8423012;28;20230;-63
2022/04/03 03:59:39;;;;;;;4.63;2.80;;;-3.90;1.00;;;;;;8415277;28;20208;-59
2022/04/03 04:03:40;;;;;;;5.53;2.70;;;-3.90;49.80;;;;;;8418276;28;20209;-61
2022/04/03 04:07:43;;;;;;;5.60;2.67;;;-3.90;99.90;;;;;;8400735;28;20227;-61
2022/04/03 04:11:44;;;;;;;6.30;2.70;;;-3.80;99.90;;;;;;8403201;28;20286;-60
2022/04/03 04:15:44;;;;;;;4.50;2.50;;;-3.80;99.90;;;;;;8440881;28;20227;-60
2022/04/03 04:19:45;;;;;;;3.20;1.93;;;-3.70;1.00;;;;;;8434512;28;20227;-62
2022/04/03 04:23:46;;;;;;;5.60;2.47;;;-3.70;1.00;;;;;;8436136;28;20224;-59
2022/04/03 04:27:47;;;;;;;6.00;2.30;;;-3.70;1.00;;;;;;8423480;28;20200;-59
2022/04/03 04:31:48;;;;;;;6.03;2.83;;;-3.60;99.90;;;;;;8405913;28;20300;-59
2022/04/03 04:35:49;;;;;;;5.60;2.57;;;-3.50;1.00;;;;;;8440180;28;20239;-60
2022/04/03 04:39:50;;;;;;;5.70;2.87;;;-3.40;99.90;;;;;;8426976;28;20244;-59
2022/04/03 04:43:51;;;;;;;4.53;2.23;;;-3.40;1.00;;;;;;8432562;28;20274;-59
2022/04/03 04:47:59;;;;;;;3.53;1.93;;;-3.30;1.00;;;;;;8412820;28;20212;-58
2022/04/03 04:52:00;;;;;;;5.83;2.20;;;-3.20;47.70;;;;;;8444922;28;20217;-60
2022/04/03 04:56:01;;;;;;;4.07;2.20;;;-3.10;17.50;;;;;;8419072;28;20221;-59
2022/04/03 05:00:13;;;;;;;4.20;2.17;;;-3.10;17.30;;;;;;8437353;28;20206;-58
2022/04/03 05:04:15;;;;;;;4.50;2.80;;;-3.00;1.00;;;;;;8423113;28;20286;-58
2022/04/03 05:08:16;;;;;;;5.33;2.60;;;-3.00;1.00;;;;;;8440631;28;20231;-59
2022/04/03 05:12:17;;;;;;;5.17;2.40;;;-2.90;1.00;;;;;;8440020;28;20292;-58
2022/04/03 05:16:18;;;;;;;3.87;2.80;;;-2.90;1.00;;;;;;8430933;28;20221;-58
2022/04/03 05:20:20;;;;;;;5.17;2.37;;;-2.80;99.90;;;;;;8413655;28;20200;-58
2022/04/03 05:24:20;;;;;;;5.30;2.30;;;-2.70;99.90;;;;;;8427924;28;20241;-60
2022/04/03 05:28:21;;;;;;;3.87;2.63;;;-2.70;1.00;;;;;;8437402;28;20270;-61
2022/04/03 05:32:30;;;;;;;3.80;2.30;;;-2.60;1.00;;;;;;8437992;28;20251;-58
2022/04/03 05:36:31;;;;;;;5.07;2.50;;;-2.60;1.00;;;;;;8440401;28;20230;-58
2022/04/03 05:40:32;;;;;;;5.90;2.40;;;-2.60;99.90;;;;;;8417391;28;20220;-59
2022/04/03 05:44:33;;;;;;;6.97;2.67;;;-2.50;99.90;;;;;;8422810;28;20302;-60
2022/04/03 05:48:33;;;;;;;4.67;2.43;;;-2.40;99.90;;;;;;8426547;28;20211;-59
2022/04/03 05:52:46;;;;;;;5.37;2.33;;;-2.30;99.90;;;;;;8420092;28;20219;-58
2022/04/03 05:56:46;;;;;;;3.43;2.07;;;-2.20;15.50;;;;;;8428935;28;20216;-64
2022/04/03 06:00:47;;;;;;;4.73;2.47;;;-2.00;1.00;;;;;;8438082;28;20248;-57
2022/04/03 06:04:48;;;;;;;3.47;2.30;;;-1.90;1.00;;;;;;8437014;28;20208;-61
2022/04/03 06:08:49;;;;;;;5.93;2.83;;;-1.90;1.00;;;;;;8440178;28;20203;-62
2022/04/03 06:13:04;;;;;;;5.57;2.50;;;-1.70;1.00;;;;;;8404066;28;20272;-59
2022/04/03 06:17:05;;;;;;;2.83;1.77;;;-1.50;99.90;;;;;;8416514;28;20219;-59
2022/04/03 06:21:06;;;;;;;2.03;1.77;;;-1.40;99.90;;;;;;8415614;28;20260;-59
2022/04/03 06:25:07;;;;;;;4.60;1.97;;;-1.20;99.90;;;;;;8422360;28;20212;-59
2022/04/03 06:29:08;;;;;;;3.20;2.17;;;-1.10;99.90;;;;;;8403073;28;20269;-58
2022/04/03 06:33:09;;;;;;;4.63;2.27;;;-1.00;99.90;;;;;;8424335;28;20219;-75
2022/04/03 06:37:09;;;;;;;4.23;2.23;;;-0.70;99.90;;;;;;8416920;28;20215;-60
2022/04/03 06:41:10;;;;;;;5.43;2.40;;;-0.60;79.20;;;;;;8415065;28;20233;-60
2022/04/03 06:45:11;;;;;;;3.07;1.77;;;-0.50;99.90;;;;;;8420493;28;20203;-59
2022/04/03 06:49:12;;;;;;;3.47;1.87;;;-0.50;15.80;;;;;;8428423;28;20211;-59
2022/04/03 06:53:13;;;;;;;6.90;2.50;;;-0.40;55.70;;;;;;8414412;28;20216;-59
2022/04/03 06:57:15;;;;;;;3.27;2.13;;;-0.30;23.00;;;;;;8419476;28;20211;-59
2022/04/03 07:01:16;;;;;;;3.73;1.97;;;-0.30;1.00;;;;;;8435710;28;20455;-58
2022/04/03 07:05:17;;;;;;;2.83;1.60;;;-0.20;1.00;;;;;;8414539;28;20222;-59
2022/04/03 07:09:18;;;;;;;4.07;1.80;;;0.00;1.00;;;;;;8435162;28;20208;-61
2022/04/03 07:13:19;;;;;;;4.30;1.60;;;0.10;1.00;;;;;;8404211;28;20220;-59
2022/04/03 07:17:19;;;;;;;4.17;1.63;;;0.30;1.00;;;;;;8437748;28;20326;-59
2022/04/03 07:21:20;;;;;;;2.80;1.47;;;0.30;1.00;;;;;;8434801;28;20212;-59
2022/04/03 07:25:22;;;;;;;2.20;1.47;;;0.40;1.00;;;;;;8428715;28;20203;-57
2022/04/03 07:29:23;;;;;;;2.50;1.50;;;0.60;1.00;;;;;;8434710;28;20215;-60
2022/04/03 07:33:24;;;;;;;4.83;1.87;;;0.50;1.00;;;;;;8446015;28;20237;-57
2022/04/03 07:37:25;;;;;;;4.17;2.43;;;0.40;1.00;;;;;;8419652;28;20211;-58
2022/04/03 07:41:26;;;;;;;5.27;1.93;;;0.60;1.00;;;;;;8431386;28;20211;-61
2022/04/03 07:45:27;;;;;;;2.03;1.40;;;0.70;99.90;;;;;;8430775;28;20212;-59
2022/04/03 07:49:27;;;;;;;3.43;1.87;;;0.80;99.90;;;;;;8415355;28;20235;-58
2022/04/03 07:53:28;;;;;;;2.90;1.80;;;0.70;99.90;;;;;;8440737;28;20230;-60
2022/04/03 07:57:29;;;;;;;3.03;1.77;;;1.00;99.90;;;;;;8408545;28;20222;-59
2022/04/03 08:01:30;;;;;;;4.93;2.20;;;1.20;99.90;;;;;;8423362;28;20207;-59
2022/04/03 08:05:31;;;;;;;2.67;1.70;;;1.40;99.90;;;;;;8440427;28;20227;-58
2022/04/03 08:09:32;;;;;;;2.77;1.43;;;1.80;99.90;;;;;;8443803;28;20201;-58
2022/04/03 08:13:33;;;;;;;4.70;2.47;;;1.90;99.90;;;;;;8417907;28;20212;-60
2022/04/03 08:17:34;;;;;;;3.00;1.70;;;2.30;99.90;;;;;;8435339;28;20214;-60
2022/04/03 08:21:35;;;;;;;2.83;1.10;;;2.80;99.90;;;;;;8436777;28;20211;-58
2022/04/03 08:25:37;;;;;;;1.47;0.83;;;3.20;23.30;;;;;;8431185;28;20220;-61
2022/04/03 08:29:38;;;;;;;5.17;3.13;;;3.10;1.00;;;;;;8438966;28;20286;-58
2022/04/03 08:33:39;;;;;;;1.17;0.90;;;2.80;10.20;;;;;;8416374;28;20219;-59
2022/04/03 08:37:40;;;;;;;2.00;1.37;;;2.90;3.50;;;;;;8438960;28;20279;-60
2022/04/03 08:41:42;;;;;;;6.30;2.27;;;2.70;10.50;;;;;;8405617;28;20213;-59
2022/04/03 08:45:43;;;;;;;3.03;1.40;;;2.40;31.90;;;;;;8446786;28;20234;-61
2022/04/03 08:49:46;;;;;;;4.57;3.00;;;2.20;38.40;;;;;;8446852;28;20214;-60
2022/04/03 08:53:47;;;;;;;4.03;1.00;;;2.50;39.90;;;;;;8426304;28;20222;-58
2022/04/03 08:57:49;;;;;;;3.53;0.90;;;2.50;37.80;;;;;;8423144;28;20202;-60
2022/04/03 09:01:50;;;;;;;3.60;1.50;;;2.40;49.90;;;;;;8431266;28;20225;-60
2022/04/03 09:05:51;;;;;;;0.87;0.60;;;2.30;41.90;;;;;;8438613;28;20200;-58
2022/04/03 09:09:57;;;;;;;4.37;0.77;;;2.20;19.10;;;;;;8415042;28;20242;-58
2022/04/03 09:14:12;;;;;;;2.50;1.20;;;2.30;26.90;;;;;;8426556;28;20245;-64
2022/04/03 09:18:12;;;;;;;1.83;1.10;;;2.30;39.00;;;;;;8421999;28;20221;-58
2022/04/03 09:22:14;;;;;;;2.30;0.93;;;2.50;80.20;;;;;;8431065;28;20425;-58
2022/04/03 09:26:18;;;;;;;2.83;1.10;;;2.60;37.90;;;;;;8437604;28;20290;-60
2022/04/03 09:30:24;;;;;;;1.10;0.90;;;2.60;45.80;;;;;;8455873;28;20196;-59
2022/04/03 09:34:26;;;;;;;2.30;1.23;;;2.80;41.90;;;;;;8421488;28;20216;-60
2022/04/03 09:38:29;;;;;;;5.80;2.27;;;3.20;46.50;;;;;;8416482;28;20246;-59
2022/04/03 09:42:30;;;;;;;3.27;1.10;;;3.60;19.20;;;;;;8441670;28;20192;-60
2022/04/03 09:46:31;;;;;;;4.07;1.30;;;4.10;1.00;;;;;;8430829;28;20246;-63
2022/04/03 09:50:32;;;;;;;2.43;1.50;;;3.50;1.00;;;;;;8416368;28;20220;-60
2022/04/03 09:54:33;;;;;;;5.47;1.00;;;3.30;9.30;;;;;;8411839;28;20227;-60
2022/04/03 09:58:54;;;;;;;2.57;1.47;;;3.70;24.20;;;;;;8418847;28;20220;-60
2022/04/03 10:03:05;;;;;;;1.97;1.07;;;3.70;1.00;;;;;;8408398;28;20204;-59
2022/04/03 10:07:08;;;;;;;2.17;0.90;;;3.50;1.00;;;;;;8403724;28;20436;-61
2022/04/03 10:11:09;;;;;;;1.90;1.10;;;3.80;5.40;;;;;;8405039;28;20253;-62
2022/04/03 10:15:10;;;;;;;3.63;1.70;;;3.70;1.00;;;;;;8420814;28;20234;-58
2022/04/03 10:19:11;;;;;;;4.07;1.00;;;3.40;1.00;;;;;;8422219;28;20213;-62
2022/04/03 10:23:13;;;;;;;1.30;1.00;;;3.40;1.00;;;;;;8429413;28;20219;-60
2022/04/03 10:27:29;;;;;;;2.47;1.13;;;3.10;2.70;;;;;;8420816;28;20200;-61
2022/04/03 10:31:30;;;;;;;1.50;0.80;;;3.20;24.40;;;;;;8402855;28;20235;-60
2022/04/03 10:35:31;;;;;;;2.50;0.97;;;3.30;21.30;;;;;;8403717;28;20227;-61
2022/04/03 10:39:33;;;;;;;2.47;1.13;;;3.60;22.90;;;;;;8402294;28;20207;-58
2022/04/03 10:43:39;;;;;;;2.53;0.80;;;3.50;28.50;;;;;;8434540;28;20243;-60
2022/04/03 10:47:42;;;;;;;3.93;1.00;;;3.20;25.30;;;;;;8407095;28;20208;-59
2022/04/03 10:51:43;;;;;;;1.83;0.87;;;3.00;54.90;;;;;;8439086;28;20215;-61
2022/04/03 10:55:54;;;;;;;2.03;1.07;;;3.50;73.10;;;;;;8422546;28;20310;-60
2022/04/03 11:00:13;;;;;;;2.50;0.83;;;4.00;11.00;;;;;;8417443;28;20212;-58
2022/04/03 11:04:14;;;;;;;1.00;0.70;;;4.00;1.00;;;;;;8402489;28;20208;-60
2022/04/03 11:08:38;;;;;;;1.87;0.93;;;3.70;1.00;;;;;;8407123;28;20215;-67
2022/04/03 11:12:44;;;;;;;1.93;1.20;;;3.70;22.30;;;;;;8432781;28;20206;-61
2022/04/03 11:16:56;;;;;;;1.93;1.07;;;3.20;82.50;;;;;;8426400;28;20533;-61
2022/04/03 11:21:24;;;;;;;3.17;1.13;;;3.30;89.30;;;;;;8413556;28;20211;-60
2022/04/03 11:25:25;;;;;;;2.07;1.30;;;3.50;96.80;;;;;;8411001;28;20522;-61
2022/04/03 11:29:26;;;;;;;1.90;0.97;;;3.60;69.70;;;;;;8400669;28;20212;-60
2022/04/03 11:33:32;;;;;;;1.77;1.07;;;3.60;76.90;;;;;;8419756;28;20219;-59
2022/04/03 11:37:33;;;;;;;3.03;1.20;;;4.30;73.30;;;;;;8431893;28;20274;-59
2022/04/03 11:41:35;;;;;;;2.30;1.10;;;4.90;17.50;;;;;;8432005;28;20233;-59
2022/04/03 11:45:37;;;;;;;1.50;1.20;;;4.90;10.50;;;;;;8443068;28;20218;-61
2022/04/03 11:49:38;;;;;;;1.17;0.93;;;5.00;1.00;;;;;;8442525;28;20205;-60
2022/04/03 11:53:42;;;;;;;2.10;1.43;;;5.30;1.00;;;;;;8430615;28;20239;-64
2022/04/03 11:57:43;;;;;;;3.03;1.50;;;5.10;1.00;;;;;;8433915;28;20219;-58
2022/04/03 12:01:51;;;;;;;3.20;1.80;;;3.90;27.70;;;;;;8401740;28;20212;-62
2022/04/03 12:05:51;;;;;;;2.57;1.63;;;3.40;82.40;;;;;;8412267;28;20212;-60
2022/04/03 12:09:53;;;;;;;3.20;1.57;;;3.40;99.90;;;;;;8400440;28;20246;-61
2022/04/03 12:13:55;;;;;;;2.63;1.40;;;3.50;78.70;;;;;;8409768;28;20212;-60
2022/04/03 12:17:57;;;;;;;2.13;1.30;;;3.80;79.70;;;;;;8447837;28;20229;-62
2022/04/03 12:22:00;;;;;;;1.97;1.23;;;4.30;65.70;;;;;;8427530;28;20227;-61
2022/04/03 12:26:01;;;;;;;5.37;1.40;;;5.10;37.50;;;;;;8410335;28;20197;-60
2022/04/03 12:30:02;;;;;;;1.60;1.10;;;5.90;5.00;;;;;;8400245;28;20211;-59
2022/04/03 12:34:06;;;;;;;2.03;1.47;;;6.60;1.00;;;;;;8437731;28;20251;-61
2022/04/03 12:38:10;;;;;;;2.33;1.67;;;5.70;1.00;;;;;;8435123;28;20208;-60
2022/04/03 12:42:23;;;;;;;2.73;1.40;;;3.90;40.10;;;;;;8418279;28;20206;-61
2022/04/03 12:46:46;;;;;;;2.43;1.33;;;3.30;99.90;;;;;;8449678;28;20244;-60
2022/04/03 12:50:48;;;;;;;2.33;1.20;;;3.00;99.90;;;;;;8441594;28;20196;-60
2022/04/03 12:54:49;;;;;;;2.30;1.50;;;3.30;99.90;;;;;;8431962;28;20222;-60
2022/04/03 12:58:50;;;;;;;3.83;1.47;;;3.90;99.90;;;;;;8440506;28;20215;-60
2022/04/03 13:02:54;;;;;;;1.60;1.13;;;4.50;84.20;;;;;;8403568;28;20212;-62
2022/04/03 13:06:55;;;;;;;1.87;1.20;;;4.90;96.70;;;;;;8423852;28;20192;-60
2022/04/03 13:10:58;;;;;;;1.23;1.13;;;5.70;25.40;;;;;;8452308;28;20305;-60
2022/04/03 13:14:59;;;;;;;3.27;1.43;;;5.60;1.00;;;;;;8443069;28;20239;-62
2022/04/03 13:19:00;;;;;;;2.10;1.03;;;4.70;1.00;;;;;;8433742;28;20204;-61
2022/04/03 13:23:01;;;;;;;2.50;1.63;;;4.10;1.00;;;;;;8420270;28;20204;-63
2022/04/03 13:27:02;;;;;;;1.70;1.20;;;3.90;1.00;;;;;;8404892;28;20208;-62
2022/04/03 13:31:03;;;;;;;3.07;1.30;;;4.30;7.00;;;;;;8422877;28;20192;-62
2022/04/03 13:35:06;;;;;;;4.30;1.40;;;4.30;1.00;;;;;;8405202;28;20224;-60
2022/04/03 13:39:09;;;;;;;3.03;1.40;;;4.40;1.00;;;;;;8411378;28;20205;-61
2022/04/03 13:43:11;;;;;;;2.00;1.40;;;4.80;1.00;;;;;;8430181;28;20254;-61
2022/04/03 13:47:11;;;;;;;2.10;1.37;;;4.50;1.00;;;;;;8411146;28;20230;-60
2022/04/03 13:51:15;;;;;;;1.07;0.90;;;4.70;1.00;;;;;;8434362;28;20208;-61
2022/04/03 13:55:16;;;;;;;1.10;0.93;;;4.90;1.00;;;;;;8410501;28;20227;-60
2022/04/03 13:59:17;;;;;;;1.10;1.00;;;4.80;1.00;;;;;;8423398;28;20208;-59
2022/04/03 14:03:20;;;;;;;2.10;1.20;;;5.10;1.00;;;;;;8432541;28;20253;-62
2022/04/03 14:07:21;;;;;;;1.70;1.27;;;5.40;1.00;;;;;;8404375;28;20419;-61
2022/04/03 14:11:22;;;;;;;2.03;1.30;;;5.30;1.00;;;;;;8422374;28;20258;-59
2022/04/03 14:15:23;;;;;;;2.47;1.07;;;5.30;1.00;;;;;;8440876;28;20637;-59
2022/04/03 14:19:24;;;;;;;1.70;1.20;;;4.60;1.00;;;;;;8440996;28;20188;-60
2022/04/03 14:23:34;;;;;;;3.20;1.47;;;4.60;1.00;;;;;;8410711;28;20235;-62
2022/04/03 14:27:35;;;;;;;2.07;1.23;;;5.10;1.00;;;;;;8404977;28;20206;-72
2022/04/03 14:31:36;;;;;;;1.30;1.10;;;4.80;1.00;;;;;;8403155;28;20215;-59
2022/04/03 14:35:37;;;;;;;2.27;1.33;;;4.50;1.00;;;;;;8427422;28;20299;-61
2022/04/03 14:39:38;;;;;;;2.13;1.20;;;4.30;1.00;;;;;;8416960;28;20260;-62
2022/04/03 14:43:40;;;;;;;2.77;1.20;;;4.40;1.00;;;;;;8414226;28;20291;-61
2022/04/03 14:47:44;;;;;;;2.57;1.40;;;4.40;1.00;;;;;;8449749;28;20203;-60
2022/04/03 14:51:46;;;;;;;2.63;1.60;;;4.50;1.00;;;;;;8437214;28;20201;-62
2022/04/03 14:55:47;;;;;;;1.70;1.23;;;4.60;1.00;;;;;;8434353;28;20224;-61
2022/04/03 14:59:48;;;;;;;3.27;1.67;;;4.40;1.00;;;;;;8435778;28;20209;-61
2022/04/03 15:03:49;;;;;;;3.33;1.13;;;4.30;1.00;;;;;;8419872;28;20282;-59
2022/04/03 15:07:51;;;;;;;1.47;1.20;;;4.20;1.00;;;;;;8424934;28;20507;-61
2022/04/03 15:11:53;;;;;;;3.43;1.07;;;4.20;1.00;;;;;;8402560;28;20200;-60
2022/04/03 15:15:54;;;;;;;2.30;1.47;;;4.20;1.00;;;;;;8446061;28;20302;-61
2022/04/03 15:19:55;;;;;;;1.93;1.10;;;4.30;1.00;;;;;;8441859;28;20291;-61
2022/04/03 15:23:58;;;;;;;1.27;1.00;;;4.20;1.00;;;;;;8406496;28;20226;-59
2022/04/03 15:27:59;;;;;;;2.43;1.20;;;4.30;1.00;;;;;;8402111;28;20208;-60
2022/04/03 15:32:00;;;;;;;1.60;1.10;;;4.50;1.00;;;;;;8401456;28;20206;-60
2022/04/03 15:36:01;;;;;;;1.77;1.03;;;4.60;1.00;;;;;;8438854;28;20593;-61
2022/04/03 15:40:03;;;;;;;1.47;0.97;;;4.70;1.00;;;;;;8401260;28;20207;-62
2022/04/03 15:44:05;;;;;;;1.63;0.97;;;4.70;1.00;;;;;;8446057;28;20204;-60
2022/04/03 15:48:06;;;;;;;2.57;1.63;;;4.70;1.00;;;;;;8401379;28;20220;-60
2022/04/03 15:52:07;;;;;;;3.00;1.30;;;4.40;1.00;;;;;;8418624;28;20211;-59
2022/04/03 15:56:08;;;;;;;1.30;1.03;;;4.30;1.00;;;;;;8402226;28;20234;-60
2022/04/03 16:00:11;;;;;;;2.10;1.80;;;4.30;1.00;;;;;;8405982;28;20238;-62
2022/04/03 16:04:14;;;;;;;1.90;1.43;;;4.30;1.00;;;;;;8407786;28;20202;-61
2022/04/03 16:08:15;;;;;;;2.03;1.10;;;4.20;1.00;;;;;;8421997;28;20212;-60
2022/04/03 16:12:16;;;;;;;2.00;1.40;;;4.00;1.00;;;;;;8408623;28;20207;-60
2022/04/03 16:16:23;;;;;;;2.03;1.27;;;3.80;1.00;;;;;;8431801;28;20278;-61
2022/04/03 16:20:24;;;;;;;2.47;1.57;;;3.60;1.00;;;;;;8447233;28;20200;-60
2022/04/03 16:24:25;;;;;;;1.60;1.17;;;3.60;1.00;;;;;;8450080;28;20198;-60
2022/04/03 16:28:27;;;;;;;1.53;1.10;;;3.70;1.00;;;;;;8457482;28;20203;-61
2022/04/03 16:32:27;;;;;;;2.47;1.50;;;3.70;1.00;;;;;;8451247;28;20208;-63
2022/04/03 16:36:28;;;;;;;2.93;1.57;;;3.50;1.00;;;;;;8421174;28;20215;-60
2022/04/03 16:40:30;;;;;;;4.90;1.50;;;3.50;1.00;;;;;;8412531;28;20200;-60
2022/04/03 16:44:30;;;;;;;1.53;0.93;;;3.40;1.00;;;;;;8439264;28;20236;-60
2022/04/03 16:48:33;;;;;;;1.60;0.90;;;3.40;1.00;;;;;;8428838;28;20207;-60
2022/04/03 16:52:34;;;;;;;2.10;0.93;;;3.50;3.50;;;;;;8439755;28;20249;-61
2022/04/03 16:56:35;;;;;;;3.07;0.80;;;3.60;6.00;;;;;;8413906;28;20272;-62
2022/04/03 17:00:38;;;;;;;1.77;0.80;;;3.60;7.20;;;;;;8437052;28;20341;-61
2022/04/03 17:04:39;;;;;;;1.40;0.70;;;3.60;4.30;;;;;;8429578;28;20212;-62
2022/04/03 17:08:41;;;;;;;3.60;1.00;;;3.50;1.00;;;;;;8427421;28;20203;-60
2022/04/03 17:12:42;;;;;;;2.50;0.90;;;3.40;2.40;;;;;;8449480;28;20208;-65
2022/04/03 17:16:43;;;;;;;1.73;0.90;;;3.20;8.10;;;;;;8415731;28;20666;-60
2022/04/03 17:20:44;;;;;;;1.03;0.80;;;3.00;14.30;;;;;;8417690;28;20207;-62
2022/04/03 17:24:46;;;;;;;1.77;0.70;;;2.80;21.50;;;;;;8418715;28;20248;-60
2022/04/03 17:28:48;;;;;;;1.37;0.87;;;2.60;30.00;;;;;;8406040;28;20215;-60
2022/04/03 17:32:49;;;;;;;1.70;1.07;;;2.40;55.50;;;;;;8431333;28;20202;-61
2022/04/03 17:36:50;;;;;;;2.10;0.83;;;2.10;96.80;;;;;;8421094;28;20231;-60
2022/04/03 17:40:52;;;;;;;1.77;1.20;;;1.90;99.90;;;;;;8426411;28;20198;-62
2022/04/03 17:44:53;;;;;;;0.93;0.73;;;1.60;99.90;;;;;;8419503;28;20422;-62
2022/04/03 17:48:54;;;;;;;1.90;0.90;;;1.30;99.90;;;;;;8409163;28;20291;-62
2022/04/03 17:52:55;;;;;;;1.63;0.90;;;1.10;99.90;;;;;;8411821;28;20209;-61
2022/04/03 17:56:57;;;;;;;1.47;0.80;;;0.80;99.90;;;;;;8409740;28;20229;-61
2022/04/03 18:00:58;;;;;;;2.37;1.00;;;0.50;99.90;;;;;;8436951;28;20210;-62
2022/04/03 18:04:59;;;;;;;2.83;0.97;;;0.30;99.90;;;;;;8422636;28;20203;-61
2022/04/03 18:09:00;;;;;;;2.77;1.20;;;0.00;99.90;;;;;;8403161;28;20224;-60
2022/04/03 18:13:01;;;;;;;1.80;1.13;;;-0.20;99.90;;;;;;8412376;28;20208;-61
2022/04/03 18:17:03;;;;;;;1.40;0.80;;;-0.40;99.90;;;;;;8446279;28;20320;-60
2022/04/03 18:21:06;;;;;;;3.30;1.50;;;-0.60;99.90;;;;;;8432113;28;20214;-62
2022/04/03 18:25:07;;;;;;;3.00;1.57;;;-0.80;99.90;;;;;;8417466;28;20208;-61
2022/04/03 18:29:10;;;;;;;2.87;1.87;;;-0.90;99.90;;;;;;8409751;28;20204;-63
2022/04/03 18:33:11;;;;;;;5.03;2.43;;;-1.00;99.90;;;;;;8416768;28;20528;-61
2022/04/03 18:37:12;;;;;;;5.00;2.67;;;-1.10;99.90;;;;;;8439594;28;20223;-60
2022/04/03 18:41:15;;;;;;;4.83;2.70;;;-1.10;99.90;;;;;;8432069;28;20269;-60
2022/04/03 18:45:16;;;;;;;6.93;3.60;;;-1.10;99.90;;;;;;8426622;28;20211;-61
2022/04/03 18:49:18;;;;;;;5.40;3.53;;;-1.10;99.90;;;;;;8428153;28;20310;-62
2022/04/03 18:53:20;;;;;;;6.30;3.80;;;-1.00;99.90;;;;;;8433457;28;20204;-63
2022/04/03 18:57:21;;;;;;;7.20;4.03;;;-0.90;99.90;;;;;;8401677;28;20219;-61
2022/04/03 19:01:22;;;;;;;7.43;4.63;;;-0.80;99.90;;;;;;8430483;28;20234;-62
2022/04/03 19:05:23;;;;;;;8.90;5.20;;;-0.70;99.90;;;;;;8435755;28;20214;-61
2022/04/03 19:09:24;;;;;;;8.17;5.13;;;-0.70;99.90;;;;;;8416763;28;20212;-63
2022/04/03 19:13:25;;;;;;;7.93;4.70;;;-0.70;99.90;;;;;;8413544;28;20291;-60
2022/04/03 19:17:26;;;;;;;6.93;4.50;;;-0.60;99.90;;;;;;8431232;28;20678;-61
2022/04/03 19:21:28;;;;;;;7.40;4.00;;;-0.60;99.90;;;;;;8408053;28;20237;-61
2022/04/03 19:25:30;;;;;;;8.13;4.10;;;-0.60;99.90;;;;;;8426828;28;20204;-60
2022/04/03 19:29:31;;;;;;;8.73;4.60;;;-0.60;99.90;;;;;;8435264;28;20298;-61
2022/04/03 19:33:32;;;;;;;7.20;4.03;;;-0.70;99.90;;;;;;8444403;28;20207;-60
2022/04/03 19:37:33;;;;;;;10.07;4.50;;;-0.70;99.90;;;;;;8410652;28;20220;-61
2022/04/03 19:41:34;;;;;;;8.63;3.87;;;-0.80;99.90;;;;;;8420603;28;20238;-60
2022/04/03 19:45:36;;;;;;;8.77;3.97;;;-0.90;99.90;;;;;;8419821;28;20216;-60
2022/04/03 19:49:37;;;;;;;10.63;4.77;;;-0.90;99.90;;;;;;8412939;28;20212;-62
2022/04/03 19:53:40;;;;;;;7.37;3.57;;;-1.00;99.90;;;;;;8428720;28;20218;-58
2022/04/03 19:57:41;;;;;;;8.60;4.03;;;-1.00;99.90;;;;;;8427926;28;20238;-59
2022/04/03 20:01:42;;;;;;;7.33;4.13;;;-0.90;99.90;;;;;;8413170;28;20212;-70
2022/04/03 20:05:43;;;;;;;6.17;4.27;;;-0.90;99.90;;;;;;8407323;28;20200;-60
2022/04/03 20:09:43;;;;;;;9.33;4.40;;;-0.90;99.90;;;;;;8406369;28;20612;-59
2022/04/03 20:13:44;;;;;;;7.37;4.07;;;-0.80;99.90;;;;;;8413904;28;20217;-59
2022/04/03 20:17:45;;;;;;;9.47;4.30;;;-0.80;99.90;;;;;;8427391;28;20215;-60
2022/04/03 20:21:46;;;;;;;7.77;4.00;;;-0.70;99.90;;;;;;8432145;28;20215;-59
2022/04/03 20:25:48;;;;;;;8.37;3.70;;;-0.70;99.90;;;;;;8451944;28;20203;-59
2022/04/03 20:29:48;;;;;;;8.37;4.27;;;-0.70;99.90;;;;;;8438801;28;20256;-61
2022/04/03 20:33:49;;;;;;;7.60;4.10;;;-0.60;99.90;;;;;;8421711;28;20216;-60
2022/04/03 20:37:50;;;;;;;8.10;4.23;;;-0.60;99.90;;;;;;8410196;28;20227;-59
2022/04/03 20:41:52;;;;;;;8.13;4.27;;;-0.50;99.90;;;;;;8422120;28;20286;-59
2022/04/03 20:45:53;;;;;;;8.73;4.10;;;-0.40;99.90;;;;;;8429441;28;20309;-59
2022/04/03 20:49:53;;;;;;;8.13;4.40;;;-0.30;99.90;;;;;;8429213;28;20208;-59
2022/04/03 20:53:54;;;;;;;8.07;4.23;;;-0.20;99.90;;;;;;8443108;28;20214;-60
2022/04/03 20:57:56;;;;;;;9.33;4.73;;;-0.10;99.90;;;;;;8424831;28;20208;-60
2022/04/03 21:01:57;;;;;;;8.87;4.43;;;0.10;99.90;;;;;;8415168;28;20212;-60
2022/04/03 21:05:58;;;;;;;8.73;4.67;;;0.30;99.90;;;;;;8405355;28;20200;-59
2022/04/03 21:10:02;;;;;;;11.70;4.07;;;0.40;99.90;;;;;;8423259;28;20204;-60
2022/04/03 21:14:04;;;;;;;8.03;4.07;;;0.50;99.90;;;;;;8412380;28;20227;-61